sensor_id;sensor_type;location;lat;lon;timestamp;temperature;humidity
22968;DHT22;11650;48.106;-1.696;2023-02-11T00:03:49;6.80;99.90
22968;DHT22;11650;48.106;-1.696;2023-02-11T00:06:15;6.80;99.90
22968;DHT22;11650;48.106;-1.696;2023-02-11T00:08:41;6.80;99.90
22968;DHT22;11650;48.106;-1.696;2023-02-11T00:11:13;6.70;99.90
22968;DHT22;11650;48.106;-1.696;2023-02-11T00:13:39;6.70;99.90
22968;DHT22;11650;48.106;-1.696;2023-02-11T00:16:10;6.60;99.90
22968;DHT22;11650;48.106;-1.696;2023-02-11T00:18:37;6.60;99.90
22968;DHT22;11650;48.106;-1.696;2023-02-11T00:21:10;6.50;99.90
22968;DHT22;11650;48.106;-1.696;2023-02-11T00:23:37;6.50;99.90
22968;DHT22;11650;48.106;-1.696;2023-02-11T00:26:04;6.40;99.90
22968;DHT22;11650;48.106;-1.696;2023-02-11T00:28:35;6.40;99.90
22968;DHT22;11650;48.106;-1.696;2023-02-11T00:31:01;6.40;99.90
22968;DHT22;11650;48.106;-1.696;2023-02-11T00:33:26;6.30;99.90
22968;DHT22;11650;48.106;-1.696;2023-02-11T00:35:52;6.30;99.90
22968;DHT22;11650;48.106;-1.696;2023-02-11T00:38:18;6.20;99.90
22968;DHT22;11650;48.106;-1.696;2023-02-11T00:40:43;6.10;99.90
22968;DHT22;11650;48.106;-1.696;2023-02-11T00:43:09;6.10;99.90
22968;DHT22;11650;48.106;-1.696;2023-02-11T00:45:35;6.00;99.90
22968;DHT22;11650;48.106;-1.696;2023-02-11T00:48:00;6.00;99.90
22968;DHT22;11650;48.106;-1.696;2023-02-11T00:50:26;6.00;99.90
22968;DHT22;11650;48.106;-1.696;2023-02-11T00:52:51;6.00;99.90
22968;DHT22;11650;48.106;-1.696;2023-02-11T00:55:17;6.00;99.90
22968;DHT22;11650;48.106;-1.696;2023-02-11T00:57:43;5.90;99.90
22968;DHT22;11650;48.106;-1.696;2023-02-11T01:00:11;5.90;99.90
22968;DHT22;11650;48.106;-1.696;2023-02-11T01:02:37;5.90;99.90
22968;DHT22;11650;48.106;-1.696;2023-02-11T01:05:03;5.90;99.90
22968;DHT22;11650;48.106;-1.696;2023-02-11T01:07:29;5.80;99.90
22968;DHT22;11650;48.106;-1.696;2023-02-11T01:09:55;5.80;99.90
22968;DHT22;11650;48.106;-1.696;2023-02-11T01:12:21;5.90;99.90
22968;DHT22;11650;48.106;-1.696;2023-02-11T01:14:47;5.80;99.90
22968;DHT22;11650;48.106;-1.696;2023-02-11T01:17:13;5.80;99.90
22968;DHT22;11650;48.106;-1.696;2023-02-11T01:19:39;5.80;99.90
22968;DHT22;11650;48.106;-1.696;2023-02-11T01:22:04;5.90;99.90
22968;DHT22;11650;48.106;-1.696;2023-02-11T01:24:30;5.80;99.90
22968;DHT22;11650;48.106;-1.696;2023-02-11T01:26:56;5.70;99.90
22968;DHT22;11650;48.106;-1.696;2023-02-11T01:29:21;5.70;99.90
22968;DHT22;11650;48.106;-1.696;2023-02-11T01:31:47;5.70;99.90
22968;DHT22;11650;48.106;-1.696;2023-02-11T01:34:13;5.60;99.90
22968;DHT22;11650;48.106;-1.696;2023-02-11T01:36:39;5.60;99.90
22968;DHT22;11650;48.106;-1.696;2023-02-11T01:39:05;5.60;99.90
22968;DHT22;11650;48.106;-1.696;2023-02-11T01:41:31;5.60;99.90
22968;DHT22;11650;48.106;-1.696;2023-02-11T01:43:56;5.50;99.90
22968;DHT22;11650;48.106;-1.696;2023-02-11T01:46:30;5.50;99.90
22968;DHT22;11650;48.106;-1.696;2023-02-11T01:51:38;5.40;99.90
22968;DHT22;11650;48.106;-1.696;2023-02-11T01:54:06;5.40;99.90
22968;DHT22;11650;48.106;-1.696;2023-02-11T01:57:01;5.50;99.90
22968;DHT22;11650;48.106;-1.696;2023-02-11T01:59:53;5.50;99.90
22968;DHT22;11650;48.106;-1.696;2023-02-11T02:02:25;5.50;99.90
22968;DHT22;11650;48.106;-1.696;2023-02-11T02:05:06;5.40;99.90
22968;DHT22;11650;48.106;-1.696;2023-02-11T02:07:48;5.40;99.90
22968;DHT22;11650;48.106;-1.696;2023-02-11T02:10:20;5.30;99.90
22968;DHT22;11650;48.106;-1.696;2023-02-11T02:12:46;5.40;99.90
22968;DHT22;11650;48.106;-1.696;2023-02-11T02:15:33;5.30;99.90
22968;DHT22;11650;48.106;-1.696;2023-02-11T02:26:08;5.10;99.90
22968;DHT22;11650;48.106;-1.696;2023-02-11T02:34:41;5.00;99.90
22968;DHT22;11650;48.106;-1.696;2023-02-11T02:37:16;4.90;99.90
22968;DHT22;11650;48.106;-1.696;2023-02-11T02:39:44;4.90;99.90
22968;DHT22;11650;48.106;-1.696;2023-02-11T02:42:13;4.90;99.90
22968;DHT22;11650;48.106;-1.696;2023-02-11T02:44:39;4.90;99.90
22968;DHT22;11650;48.106;-1.696;2023-02-11T02:47:04;4.90;99.90
22968;DHT22;11650;48.106;-1.696;2023-02-11T02:49:30;4.90;99.90
22968;DHT22;11650;48.106;-1.696;2023-02-11T02:57:28;4.70;99.90
22968;DHT22;11650;48.106;-1.696;2023-02-11T03:05:54;4.70;99.90
22968;DHT22;11650;48.106;-1.696;2023-02-11T03:08:48;4.70;99.90
22968;DHT22;11650;48.106;-1.696;2023-02-11T03:11:17;4.60;99.90
22968;DHT22;11650;48.106;-1.696;2023-02-11T03:13:45;4.60;99.90
22968;DHT22;11650;48.106;-1.696;2023-02-11T03:16:20;4.50;99.90
22968;DHT22;11650;48.106;-1.696;2023-02-11T03:18:51;4.50;99.90
22968;DHT22;11650;48.106;-1.696;2023-02-11T03:21:21;4.40;99.90
22968;DHT22;11650;48.106;-1.696;2023-02-11T03:23:56;4.40;99.90
22968;DHT22;11650;48.106;-1.696;2023-02-11T03:32:07;4.50;99.90
22968;DHT22;11650;48.106;-1.696;2023-02-11T03:34:48;4.40;99.90
22968;DHT22;11650;48.106;-1.696;2023-02-11T03:37:27;4.30;99.90
22968;DHT22;11650;48.106;-1.696;2023-02-11T03:42:36;4.30;99.90
22968;DHT22;11650;48.106;-1.696;2023-02-11T03:45:06;4.20;99.90
22968;DHT22;11650;48.106;-1.696;2023-02-11T03:47:35;4.30;99.90
22968;DHT22;11650;48.106;-1.696;2023-02-11T03:50:04;4.20;99.90
22968;DHT22;11650;48.106;-1.696;2023-02-11T03:52:31;4.30;99.90
22968;DHT22;11650;48.106;-1.696;2023-02-11T03:54:59;4.10;99.90
22968;DHT22;11650;48.106;-1.696;2023-02-11T03:57:26;4.10;99.90
22968;DHT22;11650;48.106;-1.696;2023-02-11T03:59:54;4.10;99.90
22968;DHT22;11650;48.106;-1.696;2023-02-11T04:02:29;4.00;99.90
22968;DHT22;11650;48.106;-1.696;2023-02-11T04:04:55;4.00;99.90
22968;DHT22;11650;48.106;-1.696;2023-02-11T04:07:22;4.00;99.90
22968;DHT22;11650;48.106;-1.696;2023-02-11T04:09:47;4.00;99.90
22968;DHT22;11650;48.106;-1.696;2023-02-11T04:12:13;3.90;99.90
22968;DHT22;11650;48.106;-1.696;2023-02-11T04:14:39;3.90;99.90
22968;DHT22;11650;48.106;-1.696;2023-02-11T04:17:05;3.80;99.90
22968;DHT22;11650;48.106;-1.696;2023-02-11T04:19:30;3.90;99.90
22968;DHT22;11650;48.106;-1.696;2023-02-11T04:21:56;3.80;99.90
22968;DHT22;11650;48.106;-1.696;2023-02-11T04:24:22;3.90;99.90
22968;DHT22;11650;48.106;-1.696;2023-02-11T04:26:47;3.90;99.90
22968;DHT22;11650;48.106;-1.696;2023-02-11T04:29:13;3.80;99.90
22968;DHT22;11650;48.106;-1.696;2023-02-11T04:31:39;3.90;99.90
22968;DHT22;11650;48.106;-1.696;2023-02-11T04:34:04;3.90;99.90
22968;DHT22;11650;48.106;-1.696;2023-02-11T04:36:30;3.90;99.90
22968;DHT22;11650;48.106;-1.696;2023-02-11T04:38:56;3.90;99.90
22968;DHT22;11650;48.106;-1.696;2023-02-11T04:41:21;3.80;99.90
22968;DHT22;11650;48.106;-1.696;2023-02-11T04:43:47;3.70;99.90
22968;DHT22;11650;48.106;-1.696;2023-02-11T04:46:13;3.70;99.90
22968;DHT22;11650;48.106;-1.696;2023-02-11T04:48:38;3.70;99.90
22968;DHT22;11650;48.106;-1.696;2023-02-11T04:51:04;3.70;99.90
22968;DHT22;11650;48.106;-1.696;2023-02-11T04:53:30;3.70;99.90
22968;DHT22;11650;48.106;-1.696;2023-02-11T04:55:56;3.70;99.90
22968;DHT22;11650;48.106;-1.696;2023-02-11T04:58:21;3.60;99.90
22968;DHT22;11650;48.106;-1.696;2023-02-11T05:00:48;3.70;99.90
22968;DHT22;11650;48.106;-1.696;2023-02-11T05:03:14;3.70;99.90
22968;DHT22;11650;48.106;-1.696;2023-02-11T05:05:41;3.60;99.90
22968;DHT22;11650;48.106;-1.696;2023-02-11T05:08:10;3.50;99.90
22968;DHT22;11650;48.106;-1.696;2023-02-11T05:10:37;3.50;99.90
22968;DHT22;11650;48.106;-1.696;2023-02-11T05:13:02;3.50;99.90
22968;DHT22;11650;48.106;-1.696;2023-02-11T05:15:28;3.50;99.90
22968;DHT22;11650;48.106;-1.696;2023-02-11T05:17:54;3.50;99.90
22968;DHT22;11650;48.106;-1.696;2023-02-11T05:20:20;3.40;99.90
22968;DHT22;11650;48.106;-1.696;2023-02-11T05:22:46;3.30;99.90
22968;DHT22;11650;48.106;-1.696;2023-02-11T05:25:12;3.30;99.90
22968;DHT22;11650;48.106;-1.696;2023-02-11T05:27:37;3.40;99.90
22968;DHT22;11650;48.106;-1.696;2023-02-11T05:30:04;3.30;99.90
22968;DHT22;11650;48.106;-1.696;2023-02-11T05:32:30;3.20;99.90
22968;DHT22;11650;48.106;-1.696;2023-02-11T05:34:56;3.10;99.90
22968;DHT22;11650;48.106;-1.696;2023-02-11T05:37:21;3.10;99.90
22968;DHT22;11650;48.106;-1.696;2023-02-11T05:39:47;3.00;99.90
22968;DHT22;11650;48.106;-1.696;2023-02-11T05:42:13;3.00;99.90
22968;DHT22;11650;48.106;-1.696;2023-02-11T05:44:39;3.10;99.90
22968;DHT22;11650;48.106;-1.696;2023-02-11T05:47:04;3.00;99.90
22968;DHT22;11650;48.106;-1.696;2023-02-11T05:49:33;3.00;99.90
22968;DHT22;11650;48.106;-1.696;2023-02-11T05:51:59;2.90;99.90
22968;DHT22;11650;48.106;-1.696;2023-02-11T05:54:24;2.80;99.90
22968;DHT22;11650;48.106;-1.696;2023-02-11T05:56:50;2.70;99.90
22968;DHT22;11650;48.106;-1.696;2023-02-11T05:59:16;2.80;99.90
22968;DHT22;11650;48.106;-1.696;2023-02-11T06:01:41;2.70;99.90
22968;DHT22;11650;48.106;-1.696;2023-02-11T06:04:07;2.70;99.90
22968;DHT22;11650;48.106;-1.696;2023-02-11T06:06:33;2.60;99.90
22968;DHT22;11650;48.106;-1.696;2023-02-11T06:08:58;2.60;99.90
22968;DHT22;11650;48.106;-1.696;2023-02-11T06:11:24;2.60;99.90
22968;DHT22;11650;48.106;-1.696;2023-02-11T06:13:50;2.50;99.90
22968;DHT22;11650;48.106;-1.696;2023-02-11T06:16:16;2.50;99.90
22968;DHT22;11650;48.106;-1.696;2023-02-11T06:18:41;2.50;99.90
22968;DHT22;11650;48.106;-1.696;2023-02-11T06:21:08;2.50;99.90
22968;DHT22;11650;48.106;-1.696;2023-02-11T06:23:35;2.50;99.90
22968;DHT22;11650;48.106;-1.696;2023-02-11T06:26:03;2.50;99.90
22968;DHT22;11650;48.106;-1.696;2023-02-11T06:28:29;2.40;99.90
22968;DHT22;11650;48.106;-1.696;2023-02-11T06:31:03;2.50;99.90
22968;DHT22;11650;48.106;-1.696;2023-02-11T06:33:30;2.40;99.90
22968;DHT22;11650;48.106;-1.696;2023-02-11T06:35:56;2.40;99.90
22968;DHT22;11650;48.106;-1.696;2023-02-11T06:38:22;2.40;99.90
22968;DHT22;11650;48.106;-1.696;2023-02-11T06:40:48;2.40;99.90
22968;DHT22;11650;48.106;-1.696;2023-02-11T06:43:14;2.40;99.90
22968;DHT22;11650;48.106;-1.696;2023-02-11T06:45:40;2.40;99.90
22968;DHT22;11650;48.106;-1.696;2023-02-11T06:48:06;2.40;99.90
22968;DHT22;11650;48.106;-1.696;2023-02-11T06:50:32;2.40;99.90
22968;DHT22;11650;48.106;-1.696;2023-02-11T06:53:00;2.40;99.90
22968;DHT22;11650;48.106;-1.696;2023-02-11T06:55:26;2.50;99.90
22968;DHT22;11650;48.106;-1.696;2023-02-11T06:57:52;2.40;99.90
22968;DHT22;11650;48.106;-1.696;2023-02-11T07:00:18;2.40;99.90
22968;DHT22;11650;48.106;-1.696;2023-02-11T07:02:44;2.40;99.90
22968;DHT22;11650;48.106;-1.696;2023-02-11T07:05:09;2.40;99.90
22968;DHT22;11650;48.106;-1.696;2023-02-11T07:07:35;2.40;99.90
22968;DHT22;11650;48.106;-1.696;2023-02-11T07:10:02;2.20;99.90
22968;DHT22;11650;48.106;-1.696;2023-02-11T07:12:29;2.20;99.90
22968;DHT22;11650;48.106;-1.696;2023-02-11T07:14:55;2.20;99.90
22968;DHT22;11650;48.106;-1.696;2023-02-11T07:17:21;2.30;99.90
22968;DHT22;11650;48.106;-1.696;2023-02-11T07:19:47;2.30;99.90
22968;DHT22;11650;48.106;-1.696;2023-02-11T07:22:13;2.40;99.90
22968;DHT22;11650;48.106;-1.696;2023-02-11T07:24:38;2.40;99.90
22968;DHT22;11650;48.106;-1.696;2023-02-11T07:27:04;2.40;99.90
22968;DHT22;11650;48.106;-1.696;2023-02-11T07:29:30;2.30;99.90
22968;DHT22;11650;48.106;-1.696;2023-02-11T07:31:55;2.40;99.90
22968;DHT22;11650;48.106;-1.696;2023-02-11T07:34:21;2.40;99.90
22968;DHT22;11650;48.106;-1.696;2023-02-11T07:36:46;2.40;99.90
22968;DHT22;11650;48.106;-1.696;2023-02-11T07:39:13;2.40;99.90
22968;DHT22;11650;48.106;-1.696;2023-02-11T07:41:39;2.40;99.90
22968;DHT22;11650;48.106;-1.696;2023-02-11T07:44:05;2.40;99.90
22968;DHT22;11650;48.106;-1.696;2023-02-11T07:46:31;2.40;99.90
22968;DHT22;11650;48.106;-1.696;2023-02-11T07:48:57;2.40;99.90
22968;DHT22;11650;48.106;-1.696;2023-02-11T07:51:27;2.40;99.90
22968;DHT22;11650;48.106;-1.696;2023-02-11T07:53:55;2.50;99.90
22968;DHT22;11650;48.106;-1.696;2023-02-11T07:56:22;2.60;99.90
22968;DHT22;11650;48.106;-1.696;2023-02-11T07:58:49;2.70;99.90
22968;DHT22;11650;48.106;-1.696;2023-02-11T08:01:18;2.80;99.90
22968;DHT22;11650;48.106;-1.696;2023-02-11T08:03:44;3.00;99.90
22968;DHT22;11650;48.106;-1.696;2023-02-11T08:06:12;3.10;99.90
22968;DHT22;11650;48.106;-1.696;2023-02-11T08:08:38;3.10;99.90
22968;DHT22;11650;48.106;-1.696;2023-02-11T08:11:09;3.20;99.90
22968;DHT22;11650;48.106;-1.696;2023-02-11T08:13:35;3.30;99.90
22968;DHT22;11650;48.106;-1.696;2023-02-11T08:16:01;3.30;99.90
22968;DHT22;11650;48.106;-1.696;2023-02-11T08:18:27;3.50;99.90
22968;DHT22;11650;48.106;-1.696;2023-02-11T08:20:53;3.60;99.90
22968;DHT22;11650;48.106;-1.696;2023-02-11T08:23:19;3.80;99.90
22968;DHT22;11650;48.106;-1.696;2023-02-11T08:25:45;3.90;99.90
22968;DHT22;11650;48.106;-1.696;2023-02-11T08:28:10;3.90;99.90
22968;DHT22;11650;48.106;-1.696;2023-02-11T08:30:36;3.90;99.90
22968;DHT22;11650;48.106;-1.696;2023-02-11T08:33:01;3.90;99.90
22968;DHT22;11650;48.106;-1.696;2023-02-11T08:35:27;4.00;99.90
22968;DHT22;11650;48.106;-1.696;2023-02-11T08:37:53;4.00;99.90
22968;DHT22;11650;48.106;-1.696;2023-02-11T08:40:19;4.10;99.90
22968;DHT22;11650;48.106;-1.696;2023-02-11T08:42:45;4.20;99.90
22968;DHT22;11650;48.106;-1.696;2023-02-11T08:45:10;4.40;99.90
22968;DHT22;11650;48.106;-1.696;2023-02-11T08:47:37;4.60;99.90
22968;DHT22;11650;48.106;-1.696;2023-02-11T08:50:03;4.60;99.90
22968;DHT22;11650;48.106;-1.696;2023-02-11T08:52:29;4.80;99.90
22968;DHT22;11650;48.106;-1.696;2023-02-11T08:54:55;4.80;99.90
22968;DHT22;11650;48.106;-1.696;2023-02-11T08:57:21;4.80;99.90
22968;DHT22;11650;48.106;-1.696;2023-02-11T08:59:46;4.90;99.90
22968;DHT22;11650;48.106;-1.696;2023-02-11T09:02:13;4.90;99.90
22968;DHT22;11650;48.106;-1.696;2023-02-11T09:04:39;5.10;99.90
22968;DHT22;11650;48.106;-1.696;2023-02-11T09:07:05;5.30;99.90
22968;DHT22;11650;48.106;-1.696;2023-02-11T09:09:31;5.20;99.90
22968;DHT22;11650;48.106;-1.696;2023-02-11T09:11:57;5.00;99.90
22968;DHT22;11650;48.106;-1.696;2023-02-11T09:14:25;4.90;99.90
22968;DHT22;11650;48.106;-1.696;2023-02-11T09:16:51;4.90;99.90
22968;DHT22;11650;48.106;-1.696;2023-02-11T09:19:18;4.80;99.90
22968;DHT22;11650;48.106;-1.696;2023-02-11T09:21:43;4.90;99.90
22968;DHT22;11650;48.106;-1.696;2023-02-11T09:24:10;4.90;99.90
22968;DHT22;11650;48.106;-1.696;2023-02-11T09:26:36;5.00;99.90
22968;DHT22;11650;48.106;-1.696;2023-02-11T09:29:03;5.10;99.90
22968;DHT22;11650;48.106;-1.696;2023-02-11T09:31:30;5.10;99.90
22968;DHT22;11650;48.106;-1.696;2023-02-11T09:34:02;5.20;99.90
22968;DHT22;11650;48.106;-1.696;2023-02-11T09:36:34;5.60;99.90
22968;DHT22;11650;48.106;-1.696;2023-02-11T09:39:02;6.00;99.90
22968;DHT22;11650;48.106;-1.696;2023-02-11T09:43:59;6.30;99.90
22968;DHT22;11650;48.106;-1.696;2023-02-11T09:46:30;6.40;99.90
22968;DHT22;11650;48.106;-1.696;2023-02-11T09:48:57;6.30;99.90
22968;DHT22;11650;48.106;-1.696;2023-02-11T09:54:02;6.40;99.90
22968;DHT22;11650;48.106;-1.696;2023-02-11T09:56:30;6.60;99.90
22968;DHT22;11650;48.106;-1.696;2023-02-11T09:58:55;6.60;99.90
22968;DHT22;11650;48.106;-1.696;2023-02-11T10:01:43;6.70;99.90
22968;DHT22;11650;48.106;-1.696;2023-02-11T10:06:43;7.00;99.90
22968;DHT22;11650;48.106;-1.696;2023-02-11T10:22:53;7.00;99.90
22968;DHT22;11650;48.106;-1.696;2023-02-11T10:25:23;7.20;99.90
22968;DHT22;11650;48.106;-1.696;2023-02-11T10:27:51;7.30;99.90
22968;DHT22;11650;48.106;-1.696;2023-02-11T10:30:36;7.40;99.90
22968;DHT22;11650;48.106;-1.696;2023-02-11T10:33:10;7.40;99.90
22968;DHT22;11650;48.106;-1.696;2023-02-11T10:35:38;7.40;99.90
22968;DHT22;11650;48.106;-1.696;2023-02-11T10:38:04;7.60;99.90
22968;DHT22;11650;48.106;-1.696;2023-02-11T10:40:30;7.50;99.90
22968;DHT22;11650;48.106;-1.696;2023-02-11T10:43:00;7.50;99.90
22968;DHT22;11650;48.106;-1.696;2023-02-11T10:45:39;7.50;99.90
22968;DHT22;11650;48.106;-1.696;2023-02-11T10:53:42;8.10;99.90
22968;DHT22;11650;48.106;-1.696;2023-02-11T10:56:12;8.20;99.90
22968;DHT22;11650;48.106;-1.696;2023-02-11T10:58:45;8.10;99.90
22968;DHT22;11650;48.106;-1.696;2023-02-11T11:01:12;8.30;99.90
22968;DHT22;11650;48.106;-1.696;2023-02-11T11:03:51;8.30;99.90
22968;DHT22;11650;48.106;-1.696;2023-02-11T11:06:28;8.30;99.90
22968;DHT22;11650;48.106;-1.696;2023-02-11T11:08:55;8.50;99.90
22968;DHT22;11650;48.106;-1.696;2023-02-11T11:11:23;8.50;99.90
22968;DHT22;11650;48.106;-1.696;2023-02-11T11:18:45;8.70;99.90
22968;DHT22;11650;48.106;-1.696;2023-02-11T11:23:39;9.00;99.90
22968;DHT22;11650;48.106;-1.696;2023-02-11T11:26:13;9.20;99.90
22968;DHT22;11650;48.106;-1.696;2023-02-11T11:28:41;9.30;99.90
22968;DHT22;11650;48.106;-1.696;2023-02-11T11:31:22;9.40;99.90
22968;DHT22;11650;48.106;-1.696;2023-02-11T11:33:50;9.60;99.90
22968;DHT22;11650;48.106;-1.696;2023-02-11T11:36:22;9.70;99.90
22968;DHT22;11650;48.106;-1.696;2023-02-11T11:38:55;10.00;99.90
22968;DHT22;11650;48.106;-1.696;2023-02-11T11:41:28;10.00;99.90
22968;DHT22;11650;48.106;-1.696;2023-02-11T11:46:30;10.10;99.90
22968;DHT22;11650;48.106;-1.696;2023-02-11T11:49:08;10.10;99.90
22968;DHT22;11650;48.106;-1.696;2023-02-11T11:51:39;10.20;99.90
22968;DHT22;11650;48.106;-1.696;2023-02-11T11:54:10;10.20;99.90
22968;DHT22;11650;48.106;-1.696;2023-02-11T11:56:45;10.20;99.90
22968;DHT22;11650;48.106;-1.696;2023-02-11T11:59:14;10.40;99.90
22968;DHT22;11650;48.106;-1.696;2023-02-11T12:02:34;10.40;99.90
22968;DHT22;11650;48.106;-1.696;2023-02-11T12:04:59;10.50;99.90
22968;DHT22;11650;48.106;-1.696;2023-02-11T12:10:36;10.90;99.90
22968;DHT22;11650;48.106;-1.696;2023-02-11T12:21:39;11.70;99.90
22968;DHT22;11650;48.106;-1.696;2023-02-11T12:26:48;11.40;99.90
22968;DHT22;11650;48.106;-1.696;2023-02-11T12:32:14;11.80;99.90
22968;DHT22;11650;48.106;-1.696;2023-02-11T12:40:42;12.20;99.90
22968;DHT22;11650;48.106;-1.696;2023-02-11T12:43:28;12.60;99.90
22968;DHT22;11650;48.106;-1.696;2023-02-11T12:51:27;13.80;99.90
22968;DHT22;11650;48.106;-1.696;2023-02-11T13:01:55;16.00;99.90
22968;DHT22;11650;48.106;-1.696;2023-02-11T13:04:28;15.60;99.90
22968;DHT22;11650;48.106;-1.696;2023-02-11T13:07:01;14.20;99.90
22968;DHT22;11650;48.106;-1.696;2023-02-11T13:09:35;13.20;99.90
22968;DHT22;11650;48.106;-1.696;2023-02-11T13:12:05;13.50;99.90
22968;DHT22;11650;48.106;-1.696;2023-02-11T13:14:51;14.70;99.90
22968;DHT22;11650;48.106;-1.696;2023-02-11T13:17:28;13.70;99.90
22968;DHT22;11650;48.106;-1.696;2023-02-11T13:20:04;13.00;99.90
22968;DHT22;11650;48.106;-1.696;2023-02-11T13:22:47;13.90;99.90
22968;DHT22;11650;48.106;-1.696;2023-02-11T13:25:49;13.20;99.90
22968;DHT22;11650;48.106;-1.696;2023-02-11T13:28:37;14.30;99.90
22968;DHT22;11650;48.106;-1.696;2023-02-11T13:31:05;16.00;99.90
22968;DHT22;11650;48.106;-1.696;2023-02-11T13:33:37;16.80;99.90
22968;DHT22;11650;48.106;-1.696;2023-02-11T13:38:30;16.20;99.90
22968;DHT22;11650;48.106;-1.696;2023-02-11T13:41:17;15.40;99.90
22968;DHT22;11650;48.106;-1.696;2023-02-11T13:44:16;17.20;99.90
22968;DHT22;11650;48.106;-1.696;2023-02-11T13:47:05;17.50;99.90
22968;DHT22;11650;48.106;-1.696;2023-02-11T13:49:32;19.00;99.90
22968;DHT22;11650;48.106;-1.696;2023-02-11T13:52:02;20.10;99.90
22968;DHT22;11650;48.106;-1.696;2023-02-11T13:54:34;20.20;99.90
22968;DHT22;11650;48.106;-1.696;2023-02-11T14:00:00;19.70;99.90
22968;DHT22;11650;48.106;-1.696;2023-02-11T14:02:28;19.90;99.90
22968;DHT22;11650;48.106;-1.696;2023-02-11T14:05:30;19.90;99.90
22968;DHT22;11650;48.106;-1.696;2023-02-11T14:08:18;20.60;99.90
22968;DHT22;11650;48.106;-1.696;2023-02-11T14:11:04;20.80;99.90
22968;DHT22;11650;48.106;-1.696;2023-02-11T14:16:19;20.00;99.90
22968;DHT22;11650;48.106;-1.696;2023-02-11T14:23:42;21.30;99.90
22968;DHT22;11650;48.106;-1.696;2023-02-11T14:31:48;20.60;99.90
22968;DHT22;11650;48.106;-1.696;2023-02-11T14:42:30;22.10;99.90
22968;DHT22;11650;48.106;-1.696;2023-02-11T14:45:01;21.90;99.90
22968;DHT22;11650;48.106;-1.696;2023-02-11T14:47:47;22.30;99.90
22968;DHT22;11650;48.106;-1.696;2023-02-11T14:50:23;22.20;99.90
22968;DHT22;11650;48.106;-1.696;2023-02-11T14:52:51;22.30;99.90
22968;DHT22;11650;48.106;-1.696;2023-02-11T14:55:27;22.40;99.90
22968;DHT22;11650;48.106;-1.696;2023-02-11T14:58:18;22.40;99.90
22968;DHT22;11650;48.106;-1.696;2023-02-11T15:05:56;21.00;99.90
22968;DHT22;11650;48.106;-1.696;2023-02-11T15:08:22;21.30;99.90
22968;DHT22;11650;48.106;-1.696;2023-02-11T15:10:48;20.80;99.90
22968;DHT22;11650;48.106;-1.696;2023-02-11T15:13:19;21.40;99.90
22968;DHT22;11650;48.106;-1.696;2023-02-11T15:15:45;22.20;99.90
22968;DHT22;11650;48.106;-1.696;2023-02-11T15:18:19;22.50;99.90
22968;DHT22;11650;48.106;-1.696;2023-02-11T15:20:47;22.00;99.90
22968;DHT22;11650;48.106;-1.696;2023-02-11T15:23:25;20.10;99.90
22968;DHT22;11650;48.106;-1.696;2023-02-11T15:25:51;19.00;99.90
22968;DHT22;11650;48.106;-1.696;2023-02-11T15:28:31;17.80;99.90
22968;DHT22;11650;48.106;-1.696;2023-02-11T15:33:24;20.20;99.90
22968;DHT22;11650;48.106;-1.696;2023-02-11T15:35:50;21.20;99.90
22968;DHT22;11650;48.106;-1.696;2023-02-11T15:38:16;21.50;99.90
22968;DHT22;11650;48.106;-1.696;2023-02-11T15:40:52;21.80;99.90
22968;DHT22;11650;48.106;-1.696;2023-02-11T15:43:18;22.80;99.90
22968;DHT22;11650;48.106;-1.696;2023-02-11T15:45:56;22.40;99.90
22968;DHT22;11650;48.106;-1.696;2023-02-11T15:48:32;22.60;99.90
22968;DHT22;11650;48.106;-1.696;2023-02-11T15:51:02;23.40;99.90
22968;DHT22;11650;48.106;-1.696;2023-02-11T15:53:37;23.10;99.90
22968;DHT22;11650;48.106;-1.696;2023-02-11T15:56:18;22.90;99.90
22968;DHT22;11650;48.106;-1.696;2023-02-11T15:58:46;22.30;99.90
22968;DHT22;11650;48.106;-1.696;2023-02-11T16:01:12;22.20;99.90
22968;DHT22;11650;48.106;-1.696;2023-02-11T16:03:40;21.90;99.90
22968;DHT22;11650;48.106;-1.696;2023-02-11T16:08:41;22.20;99.90
22968;DHT22;11650;48.106;-1.696;2023-02-11T16:11:28;22.20;99.90
22968;DHT22;11650;48.106;-1.696;2023-02-11T16:13:56;22.40;99.90
22968;DHT22;11650;48.106;-1.696;2023-02-11T16:16:28;21.60;99.90
22968;DHT22;11650;48.106;-1.696;2023-02-11T16:19:00;21.40;99.90
22968;DHT22;11650;48.106;-1.696;2023-02-11T16:21:30;21.30;99.90
22968;DHT22;11650;48.106;-1.696;2023-02-11T16:23:57;21.00;99.90
22968;DHT22;11650;48.106;-1.696;2023-02-11T16:26:30;20.80;99.90
22968;DHT22;11650;48.106;-1.696;2023-02-11T16:29:10;20.20;99.90
22968;DHT22;11650;48.106;-1.696;2023-02-11T16:31:39;19.80;99.90
22968;DHT22;11650;48.106;-1.696;2023-02-11T16:34:32;19.90;99.90
22968;DHT22;11650;48.106;-1.696;2023-02-11T16:36:57;19.90;99.90
22968;DHT22;11650;48.106;-1.696;2023-02-11T16:39:23;19.40;99.90
22968;DHT22;11650;48.106;-1.696;2023-02-11T16:41:50;19.20;99.90
22968;DHT22;11650;48.106;-1.696;2023-02-11T16:44:16;18.00;99.90
22968;DHT22;11650;48.106;-1.696;2023-02-11T16:46:42;16.00;99.90
22968;DHT22;11650;48.106;-1.696;2023-02-11T16:49:28;14.70;99.90
22968;DHT22;11650;48.106;-1.696;2023-02-11T16:52:00;14.00;99.90
22968;DHT22;11650;48.106;-1.696;2023-02-11T16:54:27;13.40;99.90
22968;DHT22;11650;48.106;-1.696;2023-02-11T16:56:53;13.20;99.90
22968;DHT22;11650;48.106;-1.696;2023-02-11T16:59:19;12.90;99.90
22968;DHT22;11650;48.106;-1.696;2023-02-11T17:01:45;12.80;99.90
22968;DHT22;11650;48.106;-1.696;2023-02-11T17:04:19;12.50;99.90
22968;DHT22;11650;48.106;-1.696;2023-02-11T17:06:45;12.40;99.90
22968;DHT22;11650;48.106;-1.696;2023-02-11T17:09:21;12.30;99.90
22968;DHT22;11650;48.106;-1.696;2023-02-11T17:11:48;12.20;99.90
22968;DHT22;11650;48.106;-1.696;2023-02-11T17:14:14;12.10;99.90
22968;DHT22;11650;48.106;-1.696;2023-02-11T17:16:40;12.00;99.90
22968;DHT22;11650;48.106;-1.696;2023-02-11T17:19:07;11.90;99.90
22968;DHT22;11650;48.106;-1.696;2023-02-11T17:21:33;11.80;99.90
22968;DHT22;11650;48.106;-1.696;2023-02-11T17:23:59;11.80;99.90
22968;DHT22;11650;48.106;-1.696;2023-02-11T17:26:25;11.60;99.90
22968;DHT22;11650;48.106;-1.696;2023-02-11T17:28:50;11.50;99.90
22968;DHT22;11650;48.106;-1.696;2023-02-11T17:31:16;11.40;99.90
22968;DHT22;11650;48.106;-1.696;2023-02-11T17:33:42;11.30;99.90
22968;DHT22;11650;48.106;-1.696;2023-02-11T17:36:08;11.20;99.90
22968;DHT22;11650;48.106;-1.696;2023-02-11T17:38:36;11.10;99.90
22968;DHT22;11650;48.106;-1.696;2023-02-11T17:41:02;11.00;99.90
22968;DHT22;11650;48.106;-1.696;2023-02-11T17:43:29;10.90;99.90
22968;DHT22;11650;48.106;-1.696;2023-02-11T17:45:55;10.80;99.90
22968;DHT22;11650;48.106;-1.696;2023-02-11T17:48:20;10.80;99.90
22968;DHT22;11650;48.106;-1.696;2023-02-11T17:50:46;10.70;99.90
22968;DHT22;11650;48.106;-1.696;2023-02-11T17:53:11;10.60;99.90
22968;DHT22;11650;48.106;-1.696;2023-02-11T17:55:38;10.60;99.90
22968;DHT22;11650;48.106;-1.696;2023-02-11T17:58:04;10.50;99.90
22968;DHT22;11650;48.106;-1.696;2023-02-11T18:00:30;10.50;99.90
22968;DHT22;11650;48.106;-1.696;2023-02-11T18:02:56;10.40;99.90
22968;DHT22;11650;48.106;-1.696;2023-02-11T18:05:33;10.40;99.90
22968;DHT22;11650;48.106;-1.696;2023-02-11T18:07:58;10.20;99.90